Time;durP1;ratioP1;P1;durP2;ratioP2;P2;SDS_P1;SDS_P2;PMS_P1;PMS_P2;Temp;Humidity;BMP_temperature;BMP_pressure;BME280_temperature;BME280_humidity;BME280_pressure;Samples;Min_cycle;Max_cycle;Signal;HPM_P1;HPM_P2
2021/12/12 00:01:39;;;;;;;;;;;;;;;13.47;69.01;99006.94;5014387;28;933;-59
2021/12/12 00:04:12;;;;;;;;;;;;;;;13.34;69.65;99000.59;5014593;28;1886;-59
2021/12/12 00:06:49;;;;;;;;;;;;;;;13.26;70.07;99014.63;5014328;28;894;-60
2021/12/12 00:38:54;;;;;;;;;;;;;;;13.69;67.14;98968.97;5698880;22;1707;-58
2021/12/12 00:41:25;;;;;;;;;;;;;;;13.44;68.08;98953.09;5047224;28;809;-56
2021/12/12 00:43:52;;;;;;;;;;;;;;;13.20;69.40;98960.13;5048708;28;790;-58
2021/12/12 00:46:21;;;;;;;;;;;;;;;13.19;69.15;98953.78;5048328;28;814;-57
2021/12/12 00:48:48;;;;;;;;;;;;;;;13.24;68.91;98964.34;5030327;28;1934;-58
2021/12/12 00:51:16;;;;;;;;;;;;;;;13.23;68.74;98957.25;5047042;28;2225;-57
2021/12/12 00:53:42;;;;;;;;;;;;;;;12.99;71.12;98967.81;5048117;28;895;-58
2021/12/12 00:56:09;;;;;;;;;;;;;;;12.68;73.14;98956.41;5048441;28;877;-58
2021/12/12 00:58:35;;;;;;;;;;;;;;;12.39;74.98;98953.59;5048128;28;829;-57
2021/12/12 01:01:08;;;;;;;;;;;;;;;12.30;75.57;98945.91;5048070;28;889;-57
2021/12/12 01:03:37;;;;;;;;;;;;;;;12.29;75.70;98938.03;5047962;28;881;-58
2021/12/12 01:06:05;;;;;;;;;;;;;;;12.32;74.62;98937.94;5048247;28;853;-57
2021/12/12 01:08:32;;;;;;;;;;;;;;;12.42;74.84;98949.97;5047953;28;1886;-58
2021/12/12 01:11:02;;;;;;;;;;;;;;;12.52;73.93;98950.91;5047962;28;814;-58
2021/12/12 01:13:29;;;;;;;;;;;;;;;12.46;75.11;98956.97;5047856;28;881;-58
2021/12/12 01:16:00;;;;;;;;;;;;;;;12.29;77.06;98951.88;5047772;28;877;-58
2021/12/12 01:18:30;;;;;;;;;;;;;;;12.03;79.29;98946.19;5047686;28;959;-58
2021/12/12 01:20:58;;;;;;;;;;;;;;;11.78;80.91;98947.56;5040630;28;822;-58
2021/12/12 01:23:31;;;;;;;;;;;;;;;11.59;82.35;98948.41;5034350;28;787;-58
2021/12/12 01:25:58;;;;;;;;;;;;;;;11.55;82.07;98942.16;5034297;28;1009;-57
2021/12/12 01:28:27;;;;;;;;;;;;;;;11.68;81.95;98959.63;5033024;28;1967;-59
2021/12/12 01:30:56;;;;;;;;;;;;;;;11.88;80.63;98967.09;5034317;28;924;-59
2021/12/12 01:33:34;;;;;;;;;;;;;;;12.08;79.91;98959.53;5034410;28;969;-58
2021/12/12 01:36:07;;;;;;;;;;;;;;;12.15;79.13;98955.81;5034134;28;1029;-58
2021/12/12 01:38:52;;;;;;;;;;;;;;;12.31;78.68;98952.22;5033935;28;1363;-59
2021/12/12 01:41:39;;;;;;;;;;;;;;;12.44;77.37;98955.88;5034066;28;853;-59
2021/12/12 01:44:23;;;;;;;;;;;;;;;12.52;77.35;98950.91;5033832;28;1100;-60
2021/12/12 01:47:02;;;;;;;;;;;;;;;12.53;77.28;98949.69;5034027;28;881;-59
2021/12/12 01:49:30;;;;;;;;;;;;;;;12.61;76.34;98948.28;5034052;28;1918;-59
2021/12/12 01:51:57;;;;;;;;;;;;;;;12.70;75.91;98964.31;5033840;28;794;-59
2021/12/12 01:54:27;;;;;;;;;;;;;;;12.77;75.40;98969.63;5033765;28;862;-59
2021/12/12 01:56:59;;;;;;;;;;;;;;;12.74;75.39;98974.06;5033997;28;874;-58
2021/12/12 01:59:28;;;;;;;;;;;;;;;12.80;75.19;98963.22;5033750;28;858;-58
2021/12/12 02:02:00;;;;;;;;;;;;;;;12.80;75.06;98975.09;5033604;28;904;-58
2021/12/12 02:04:30;;;;;;;;;;;;;;;12.54;77.42;98982.50;5033656;28;869;-59
2021/12/12 02:06:57;;;;;;;;;;;;;;;12.21;79.29;98976.22;5033753;28;810;-58
2021/12/12 02:09:24;;;;;;;;;;;;;;;11.94;81.31;98993.09;5034090;28;1949;-58
2021/12/12 02:11:56;;;;;;;;;;;;;;;11.72;83.44;98974.19;5034056;28;759;-58
2021/12/12 02:14:23;;;;;;;;;;;;;;;11.56;84.64;98980.44;5033491;28;877;-58
2021/12/12 02:16:56;;;;;;;;;;;;;;;11.53;85.28;98988.84;5033437;28;928;-58
2021/12/12 02:19:30;;;;;;;;;;;;;;;11.48;85.72;98969.97;5033441;28;987;-58
2021/12/12 02:22:06;;;;;;;;;;;;;;;11.50;85.43;98975.84;5033332;28;868;-58
2021/12/12 02:35:43;;;;;;;;;;;;;;;11.41;86.87;98999.38;5033038;28;629;-59
2021/12/12 02:38:11;;;;;;;;;;;;;;;11.35;87.73;98989.22;5033080;28;932;-59
2021/12/12 02:40:40;;;;;;;;;;;;;;;11.23;88.76;98994.19;5032817;28;1300;-58
2021/12/12 02:43:07;;;;;;;;;;;;;;;11.16;89.12;98994.34;5032923;28;857;-59
2021/12/12 02:45:36;;;;;;;;;;;;;;;11.08;89.39;98995.69;5032774;28;898;-58
2021/12/12 02:48:05;;;;;;;;;;;;;;;11.04;90.31;98986.69;5032711;28;1030;-59
2021/12/12 02:50:34;;;;;;;;;;;;;;;11.00;90.93;98984.00;5032723;28;1969;-58
2021/12/12 02:53:04;;;;;;;;;;;;;;;10.98;90.98;98983.63;5032785;28;802;-58
2021/12/12 02:55:33;;;;;;;;;;;;;;;11.02;91.44;98986.34;5032666;28;854;-59
2021/12/12 02:58:00;;;;;;;;;;;;;;;11.01;91.74;98993.09;5032543;28;814;-59
2021/12/12 03:00:30;;;;;;;;;;;;;;;10.99;92.15;98998.25;5032597;28;878;-59
2021/12/12 03:03:00;;;;;;;;;;;;;;;11.03;91.39;98993.41;5032624;28;854;-59
2021/12/12 03:05:32;;;;;;;;;;;;;;;11.11;90.70;99007.88;5032528;28;881;-58
2021/12/12 03:08:00;;;;;;;;;;;;;;;11.19;89.82;99014.84;5031099;28;1170;-59
2021/12/12 03:10:29;;;;;;;;;;;;;;;11.23;88.63;99013.56;5031034;28;1941;-58
2021/12/12 03:12:56;;;;;;;;;;;;;;;11.21;89.07;99024.28;5032418;28;874;-59
2021/12/12 03:15:25;;;;;;;;;;;;;;;11.19;89.56;99014.84;5032316;28;822;-59
2021/12/12 03:17:53;;;;;;;;;;;;;;;11.13;89.31;98981.38;5032227;28;834;-59
2021/12/12 03:20:25;;;;;;;;;;;;;;;11.10;89.56;99015.41;5032187;28;818;-58
2021/12/12 03:22:54;;;;;;;;;;;;;;;11.04;89.95;99023.41;5032512;28;806;-59
2021/12/12 03:25:20;;;;;;;;;;;;;;;11.04;90.21;99028.16;5032097;28;826;-59
2021/12/12 03:27:47;;;;;;;;;;;;;;;11.00;89.92;99033.75;5032064;28;838;-59
2021/12/12 03:30:14;;;;;;;;;;;;;;;10.95;90.85;99033.50;5031894;28;1885;-58
2021/12/12 03:32:40;;;;;;;;;;;;;;;10.92;90.86;99076.56;5032234;28;794;-58
2021/12/12 03:35:07;;;;;;;;;;;;;;;10.89;90.79;99077.41;5032129;28;838;-58
2021/12/12 03:37:34;;;;;;;;;;;;;;;10.88;90.79;99080.59;5031884;28;1005;-58
2021/12/12 03:40:04;;;;;;;;;;;;;;;10.85;90.40;99079.47;5031731;28;1384;-55
2021/12/12 03:42:31;;;;;;;;;;;;;;;10.82;90.01;99069.25;5032193;28;846;-53
2021/12/12 03:44:58;;;;;;;;;;;;;;;10.72;90.48;99098.63;5032103;28;807;-51
2021/12/12 03:47:29;;;;;;;;;;;;;;;10.64;90.85;99105.47;5032000;28;814;-51
2021/12/12 03:49:57;;;;;;;;;;;;;;;10.55;90.92;99108.78;5031761;28;1910;-58
2021/12/12 03:52:24;;;;;;;;;;;;;;;10.49;91.26;99095.88;5031698;28;930;-69
2021/12/12 03:54:52;;;;;;;;;;;;;;;10.40;91.82;99071.53;5031820;28;870;-71
2021/12/12 03:57:20;;;;;;;;;;;;;;;10.22;93.32;99033.91;5031623;28;811;-67
2021/12/12 03:59:47;;;;;;;;;;;;;;;10.10;93.48;99033.72;5031674;28;877;-66
2021/12/12 04:02:14;;;;;;;;;;;;;;;9.99;94.08;99053.19;5031958;28;870;-65
2021/12/12 04:04:43;;;;;;;;;;;;;;;9.94;94.61;99037.09;5031445;28;881;-69
2021/12/12 04:07:12;;;;;;;;;;;;;;;9.89;94.81;99030.06;5031663;28;853;-70
2021/12/12 04:09:39;;;;;;;;;;;;;;;9.87;94.84;99046.25;5031605;28;1886;-70
2021/12/12 04:12:08;;;;;;;;;;;;;;;9.87;95.08;99070.31;5031444;28;862;-69
2021/12/12 04:14:35;;;;;;;;;;;;;;;9.87;95.29;99062.81;5031711;28;898;-70
2021/12/12 04:17:04;;;;;;;;;;;;;;;9.85;95.59;99056.16;5031475;28;850;-70
2021/12/12 04:19:31;;;;;;;;;;;;;;;9.83;95.90;99070.34;5031451;28;873;-70
2021/12/12 04:21:57;;;;;;;;;;;;;;;9.82;95.42;99052.25;5031451;28;827;-68
2021/12/12 04:24:27;;;;;;;;;;;;;;;9.80;95.70;99060.94;5031405;28;878;-67
2021/12/12 04:26:55;;;;;;;;;;;;;;;9.75;95.78;99066.94;5031401;28;802;-69
2021/12/12 04:29:32;;;;;;;;;;;;;;;9.73;95.59;99085.06;5031337;28;1890;-69
2021/12/12 04:32:01;;;;;;;;;;;;;;;9.71;95.54;99074.47;5031637;28;849;-69
2021/12/12 04:34:31;;;;;;;;;;;;;;;9.67;95.75;99081.22;5031242;28;845;-68
2021/12/12 04:37:00;;;;;;;;;;;;;;;9.63;95.95;99075.75;5029963;28;1268;-68
2021/12/12 04:39:29;;;;;;;;;;;;;;;9.62;96.14;99074.19;5031149;28;1250;-68
2021/12/12 04:42:02;;;;;;;;;;;;;;;9.60;96.09;99091.16;5031286;28;897;-67
2021/12/12 04:44:31;;;;;;;;;;;;;;;9.59;96.28;99095.09;5031394;28;869;-67
2021/12/12 04:50:01;;;;;;;;;;;;;;;9.61;96.58;99067.88;5031118;28;1977;-65
2021/12/12 04:52:40;;;;;;;;;;;;;;;9.65;96.67;99100.19;5031157;28;905;-64
2021/12/12 04:55:09;;;;;;;;;;;;;;;9.69;96.64;99098.16;5031192;28;818;-63
2021/12/12 04:57:44;;;;;;;;;;;;;;;9.67;96.80;99087.53;5035022;28;869;-62
2021/12/12 05:00:14;;;;;;;;;;;;;;;9.67;96.65;99068.22;5035034;28;885;-61
2021/12/12 05:03:02;;;;;;;;;;;;;;;9.68;96.74;99091.06;5034946;28;943;-61
2021/12/12 05:05:31;;;;;;;;;;;;;;;9.67;96.78;99070.19;5034941;28;870;-60
2021/12/12 05:08:05;;;;;;;;;;;;;;;9.68;96.91;99097.34;5034753;28;882;-60
2021/12/12 05:10:42;;;;;;;;;;;;;;;9.70;96.87;99083.16;5034572;28;1886;-59
2021/12/12 05:13:13;;;;;;;;;;;;;;;9.67;96.85;99075.72;5035275;28;806;-59
2021/12/12 05:15:41;;;;;;;;;;;;;;;9.66;96.94;99087.94;5034595;28;869;-60
2021/12/12 05:18:14;;;;;;;;;;;;;;;9.66;96.76;99107.25;5034502;28;830;-59
2021/12/12 05:20:47;;;;;;;;;;;;;;;9.72;96.66;99147.00;5034518;28;839;-59
2021/12/12 05:23:16;;;;;;;;;;;;;;;9.73;97.05;99168.66;5034451;28;830;-59
2021/12/12 05:25:50;;;;;;;;;;;;;;;9.77;97.16;99171.38;5034380;28;814;-59
2021/12/12 05:28:23;;;;;;;;;;;;;;;9.77;96.81;99163.09;5034292;28;811;-59
2021/12/12 05:30:50;;;;;;;;;;;;;;;9.73;96.63;99182.47;5034273;28;1874;-59
2021/12/12 05:33:18;;;;;;;;;;;;;;;9.69;97.08;99189.22;5034038;28;902;-59
2021/12/12 05:35:46;;;;;;;;;;;;;;;9.65;96.79;99186.50;5034256;28;886;-59
2021/12/12 05:38:14;;;;;;;;;;;;;;;9.59;97.01;99188.91;5034313;28;1021;-59
2021/12/12 05:40:43;;;;;;;;;;;;;;;9.56;97.46;99191.72;5033894;28;1312;-59
2021/12/12 05:43:11;;;;;;;;;;;;;;;9.57;97.52;99201.56;5034069;28;904;-59
2021/12/12 05:45:38;;;;;;;;;;;;;;;9.54;97.36;99197.66;5033934;28;798;-59
2021/12/12 05:48:06;;;;;;;;;;;;;;;9.52;97.94;99196.50;5034009;28;814;-59
2021/12/12 05:50:33;;;;;;;;;;;;;;;9.52;97.54;99204.78;5033735;28;1977;-58
2021/12/12 05:53:01;;;;;;;;;;;;;;;9.49;97.58;99200.84;5032658;28;803;-58
2021/12/12 05:55:28;;;;;;;;;;;;;;;9.46;97.56;99201.66;5033795;28;875;-58
2021/12/12 05:57:58;;;;;;;;;;;;;;;9.43;97.68;99193.41;5033732;28;795;-58
2021/12/12 06:00:31;;;;;;;;;;;;;;;9.39;98.00;99194.25;5034250;28;878;-58
2021/12/12 06:02:59;;;;;;;;;;;;;;;9.38;98.00;99184.38;5033409;28;953;-58
2021/12/12 06:05:26;;;;;;;;;;;;;;;9.37;98.26;99191.13;5034013;28;874;-58
2021/12/12 06:07:55;;;;;;;;;;;;;;;9.36;98.40;99178.50;5033453;28;964;-58
2021/12/12 06:10:23;;;;;;;;;;;;;;;9.39;98.48;99191.50;5033469;28;1889;-58
2021/12/12 06:12:50;;;;;;;;;;;;;;;9.43;98.63;99207.19;5033601;28;834;-58
2021/12/12 06:15:18;;;;;;;;;;;;;;;9.46;98.50;99212.69;5032219;28;860;-58
2021/12/12 06:17:48;;;;;;;;;;;;;;;9.52;98.34;99219.34;5033482;28;786;-58
2021/12/12 06:20:15;;;;;;;;;;;;;;;9.57;98.83;99212.59;5033367;28;810;-58
2021/12/12 06:22:43;;;;;;;;;;;;;;;9.59;98.27;99213.75;5033327;28;850;-57
2021/12/12 06:25:10;;;;;;;;;;;;;;;9.60;98.38;99197.97;5033320;28;889;-57
2021/12/12 06:27:38;;;;;;;;;;;;;;;9.60;98.54;99193.25;5033204;28;890;-57
2021/12/12 06:30:07;;;;;;;;;;;;;;;9.63;98.47;99179.81;5031848;28;1890;-57
2021/12/12 06:32:34;;;;;;;;;;;;;;;9.66;98.61;99174.25;5033085;28;922;-57
2021/12/12 06:35:02;;;;;;;;;;;;;;;9.70;98.61;99190.78;5033097;28;825;-57
2021/12/12 06:37:29;;;;;;;;;;;;;;;9.78;98.41;99214.34;5032986;28;1103;-57
2021/12/12 06:39:56;;;;;;;;;;;;;;;9.87;98.62;99225.66;5032732;28;1473;-57
2021/12/12 06:42:23;;;;;;;;;;;;;;;9.95;98.52;99238.19;5033143;28;826;-57
2021/12/12 06:44:50;;;;;;;;;;;;;;;9.99;98.31;99236.19;5033188;28;815;-57
2021/12/12 06:47:18;;;;;;;;;;;;;;;10.05;98.01;99233.75;5032810;28;819;-57
2021/12/12 06:49:45;;;;;;;;;;;;;;;10.08;97.79;99243.19;5033142;28;1969;-57
2021/12/12 06:52:13;;;;;;;;;;;;;;;10.10;97.37;99243.56;5032832;28;806;-57
2021/12/12 06:54:41;;;;;;;;;;;;;;;10.13;97.35;99229.69;5033010;28;791;-57
2021/12/12 06:57:11;;;;;;;;;;;;;;;10.18;97.05;99220.19;5032756;28;822;-57
2021/12/12 06:59:39;;;;;;;;;;;;;;;10.27;97.09;99225.19;5032655;28;842;-57
2021/12/12 07:02:07;;;;;;;;;;;;;;;10.36;96.49;99256.66;5032405;28;848;-57
2021/12/12 07:04:35;;;;;;;;;;;;;;;10.42;95.62;99270.81;5032565;28;854;-50
2021/12/12 07:07:03;;;;;;;;;;;;;;;10.42;95.67;99270.81;5032360;28;966;-50
2021/12/12 07:09:31;;;;;;;;;;;;;;;10.39;95.39;99250.31;5032421;28;1882;-50
2021/12/12 07:12:02;;;;;;;;;;;;;;;10.40;95.42;99238.06;5032309;28;862;-49
2021/12/12 07:14:31;;;;;;;;;;;;;;;10.42;94.85;99245.94;5032260;28;938;-50
2021/12/12 07:16:59;;;;;;;;;;;;;;;10.44;94.67;99254.59;5032325;28;877;-50
2021/12/12 07:19:26;;;;;;;;;;;;;;;10.49;94.83;99256.88;5031694;28;822;-50
2021/12/12 07:21:54;;;;;;;;;;;;;;;10.56;94.09;99272.59;5032214;28;830;-50
2021/12/12 07:24:23;;;;;;;;;;;;;;;10.59;93.69;99293.88;5032105;28;807;-50
2021/12/12 07:26:50;;;;;;;;;;;;;;;10.59;93.79;99296.66;5030933;28;905;-50
2021/12/12 07:29:16;;;;;;;;;;;;;;;10.59;94.06;99282.81;5030766;28;1955;-50
2021/12/12 07:31:44;;;;;;;;;;;;;;;10.60;94.32;99285.19;5031920;28;803;-50
2021/12/12 07:34:12;;;;;;;;;;;;;;;10.61;93.95;99272.13;5031933;28;799;-50
2021/12/12 07:36:43;;;;;;;;;;;;;;;10.61;93.60;99283.97;5032603;28;1032;-50
2021/12/12 07:39:11;;;;;;;;;;;;;;;10.61;93.55;99277.66;5031947;28;1322;-50
2021/12/12 07:41:39;;;;;;;;;;;;;;;10.59;94.28;99269.00;5031934;28;795;-50
2021/12/12 07:44:07;;;;;;;;;;;;;;;10.57;94.01;99254.81;5031917;28;902;-50
2021/12/12 07:46:35;;;;;;;;;;;;;;;10.58;93.92;99242.56;5031762;28;777;-50
2021/12/12 07:49:02;;;;;;;;;;;;;;;10.72;93.46;99277.53;5031813;28;1987;-51
2021/12/12 07:51:30;;;;;;;;;;;;;;;10.72;93.10;99300.41;5031675;28;807;-50
2021/12/12 07:53:59;;;;;;;;;;;;;;;10.66;93.36;99282.72;5031747;28;835;-51
2021/12/12 07:56:29;;;;;;;;;;;;;;;10.66;93.63;99268.91;5031671;28;862;-50
2021/12/12 07:58:58;;;;;;;;;;;;;;;10.69;93.46;99270.84;5031668;28;831;-51
2021/12/12 08:01:25;;;;;;;;;;;;;;;10.76;93.77;99267.19;5031516;28;842;-53
2021/12/12 08:03:53;;;;;;;;;;;;;;;10.74;93.41;99286.97;5031592;28;826;-52
2021/12/12 08:06:20;;;;;;;;;;;;;;;10.70;92.69;99297.28;5031550;28;972;-52
2021/12/12 08:08:47;;;;;;;;;;;;;;;10.61;92.21;99313.59;5031404;28;1956;-54
2021/12/12 08:11:18;;;;;;;;;;;;;;;10.57;92.60;99327.44;5031607;28;806;-52
2021/12/12 08:13:44;;;;;;;;;;;;;;;10.50;92.78;99324.78;5031952;28;885;-54
2021/12/12 08:16:13;;;;;;;;;;;;;;;10.46;92.36;99326.03;5031656;28;1024;-53
2021/12/12 08:18:44;;;;;;;;;;;;;;;10.41;92.83;99318.94;5031632;28;887;-54
2021/12/12 08:21:14;;;;;;;;;;;;;;;10.38;93.30;99331.63;5031845;28;814;-54
2021/12/12 08:23:41;;;;;;;;;;;;;;;10.35;93.77;99328.91;5031444;28;805;-54
2021/12/12 08:26:10;;;;;;;;;;;;;;;10.28;94.09;99335.25;5031389;28;882;-53
2021/12/12 08:28:37;;;;;;;;;;;;;;;10.19;94.00;99359.81;5031262;28;1890;-54
2021/12/12 08:31:04;;;;;;;;;;;;;;;10.11;94.09;99366.59;5032704;28;805;-52
2021/12/12 08:33:31;;;;;;;;;;;;;;;10.07;94.41;99360.34;5035456;28;842;-54
2021/12/12 08:35:58;;;;;;;;;;;;;;;10.09;95.05;99360.72;5035564;28;827;-53
2021/12/12 08:38:25;;;;;;;;;;;;;;;10.14;95.18;99354.75;5034049;28;948;-54
2021/12/12 08:40:55;;;;;;;;;;;;;;;10.13;95.27;99342.91;5034983;28;1241;-55
2021/12/12 08:43:23;;;;;;;;;;;;;;;10.17;95.95;99340.13;5035437;28;843;-55
2021/12/12 08:45:54;;;;;;;;;;;;;;;10.20;95.79;99347.59;5035047;28;1006;-55
2021/12/12 08:48:23;;;;;;;;;;;;;;;10.18;95.81;99349.97;5035145;28;850;-56
2021/12/12 08:51:03;;;;;;;;;;;;;;;10.07;95.73;99343.75;5035301;28;1974;-55
2021/12/12 08:53:30;;;;;;;;;;;;;;;9.95;96.28;99328.53;5035009;28;858;-55
2021/12/12 08:55:57;;;;;;;;;;;;;;;9.91;96.21;99309.22;5034870;28;894;-54
2021/12/12 08:58:30;;;;;;;;;;;;;;;9.94;96.29;99296.56;5034813;28;847;-55
2021/12/12 09:01:14;;;;;;;;;;;;;;;9.90;95.83;99282.81;5034748;28;841;-55
2021/12/12 09:03:42;;;;;;;;;;;;;;;9.96;95.50;99283.94;5035021;28;811;-55
2021/12/12 09:06:12;;;;;;;;;;;;;;;10.11;95.51;99276.25;5034740;28;874;-55
2021/12/12 09:08:51;;;;;;;;;;;;;;;10.23;94.68;99283.25;5034605;28;1882;-55
2021/12/12 09:11:20;;;;;;;;;;;;;;;10.44;95.34;99281.44;5034649;28;787;-55
2021/12/12 09:13:52;;;;;;;;;;;;;;;10.65;93.83;99280.38;5033352;28;853;-55
2021/12/12 09:16:39;;;;;;;;;;;;;;;10.81;93.33;99281.31;5034577;28;921;-55
2021/12/12 09:19:08;;;;;;;;;;;;;;;11.01;91.89;99280.66;5034359;28;1411;-54
2021/12/12 09:21:55;;;;;;;;;;;;;;;11.08;90.29;99274.25;5034425;28;855;-55
2021/12/12 09:24:34;;;;;;;;;;;;;;;11.12;89.89;99272.97;5034272;28;2238;-54
2021/12/12 09:27:03;;;;;;;;;;;;;;;11.15;89.62;99285.19;5034371;28;941;-55
2021/12/12 09:29:35;;;;;;;;;;;;;;;11.07;89.34;99295.56;5034196;28;1886;-54
2021/12/12 09:32:15;;;;;;;;;;;;;;;11.04;89.78;99286.13;5033044;28;909;-55
2021/12/12 09:34:53;;;;;;;;;;;;;;;11.04;89.06;99293.63;5032895;28;1167;-55
2021/12/12 09:37:34;;;;;;;;;;;;;;;11.02;88.59;99309.88;5034185;28;962;-54
2021/12/12 09:40:14;;;;;;;;;;;;;;;11.05;88.66;99322.84;5033998;28;1245;-54
2021/12/12 09:42:49;;;;;;;;;;;;;;;11.02;88.63;99320.94;5033843;28;866;-54
2021/12/12 09:45:22;;;;;;;;;;;;;;;10.91;87.60;99348.72;5034142;28;831;-54
2021/12/12 09:51:15;;;;;;;;;;;;;;;10.88;88.77;99360.63;5033842;28;1906;-55
2021/12/12 09:53:45;;;;;;;;;;;;;;;10.92;88.62;99363.34;5033921;28;857;-55
2021/12/12 09:56:14;;;;;;;;;;;;;;;10.95;88.69;99363.28;5033843;28;866;-55
2021/12/12 09:58:49;;;;;;;;;;;;;;;11.03;88.60;99355.66;5033770;28;810;-56
2021/12/12 10:01:34;;;;;;;;;;;;;;;11.18;88.84;99346.00;5033779;28;786;-56
2021/12/12 10:04:09;;;;;;;;;;;;;;;11.32;87.71;99331.16;5034767;28;783;-56
2021/12/12 10:06:45;;;;;;;;;;;;;;;11.57;86.44;99325.22;5033692;28;810;-56
2021/12/12 10:09:14;;;;;;;;;;;;;;;11.87;86.13;99339.38;5033509;28;1910;-56
2021/12/12 10:11:47;;;;;;;;;;;;;;;11.97;86.10;99325.34;5033564;28;815;-56
2021/12/12 10:14:20;;;;;;;;;;;;;;;12.01;84.25;99323.31;5033532;28;811;-56
2021/12/12 10:16:55;;;;;;;;;;;;;;;12.10;84.02;99316.41;5033482;28;830;-56
2021/12/12 10:19:24;;;;;;;;;;;;;;;12.31;84.22;99299.38;5033426;28;876;-56
2021/12/12 10:22:04;;;;;;;;;;;;;;;12.36;82.45;99264.84;5034379;28;752;-56
2021/12/12 10:24:34;;;;;;;;;;;;;;;12.29;81.85;99282.41;5033126;28;1018;-56
2021/12/12 10:27:36;;;;;;;;;;;;;;;12.13;81.23;99283.09;5033279;28;807;-56
2021/12/12 10:30:06;;;;;;;;;;;;;;;11.91;82.48;99285.50;4991580;28;1957;-56
2021/12/12 10:32:36;;;;;;;;;;;;;;;11.76;81.98;99289.72;5025734;28;907;-56
2021/12/12 10:35:20;;;;;;;;;;;;;;;11.72;83.30;99277.91;5033138;28;822;-56
2021/12/12 10:37:50;;;;;;;;;;;;;;;11.79;83.24;99264.72;5033074;28;1001;-56
2021/12/12 10:40:20;;;;;;;;;;;;;;;11.76;82.58;99270.34;5032742;28;1480;-56
2021/12/12 10:42:52;;;;;;;;;;;;;;;11.83;83.07;99264.66;5032964;28;787;-56
2021/12/12 10:45:24;;;;;;;;;;;;;;;11.81;82.78;99276.16;5033343;28;966;-56
2021/12/12 10:48:13;;;;;;;;;;;;;;;11.70;83.80;99303.25;5032859;28;901;-56
2021/12/12 10:50:49;;;;;;;;;;;;;;;11.54;84.01;99316.97;5032816;28;1922;-56
2021/12/12 10:53:16;;;;;;;;;;;;;;;11.51;84.66;99328.88;5031904;28;925;-57
2021/12/12 10:55:47;;;;;;;;;;;;;;;11.49;84.90;99332.06;5032669;28;845;-56
2021/12/12 10:58:14;;;;;;;;;;;;;;;11.42;85.14;99334.97;5031332;28;814;-57
2021/12/12 11:00:45;;;;;;;;;;;;;;;11.35;85.48;99335.84;5032639;28;779;-56
2021/12/12 11:03:17;;;;;;;;;;;;;;;11.40;85.69;99346.44;5032503;28;886;-57
2021/12/12 11:05:47;;;;;;;;;;;;;;;11.41;85.81;99356.31;5032532;28;783;-57
2021/12/12 11:08:17;;;;;;;;;;;;;;;11.37;86.25;99358.34;5032504;28;861;-57
2021/12/12 11:10:44;;;;;;;;;;;;;;;11.36;86.45;99362.31;5032293;28;1893;-57
2021/12/12 11:13:17;;;;;;;;;;;;;;;11.40;86.77;99354.75;5032447;28;818;-57
2021/12/12 11:15:44;;;;;;;;;;;;;;;11.36;86.72;99347.69;5032268;28;867;-57
2021/12/12 11:18:16;;;;;;;;;;;;;;;11.35;87.18;99332.28;5032268;28;820;-57
2021/12/12 11:20:47;;;;;;;;;;;;;;;11.43;87.65;99340.06;5032210;28;783;-57
2021/12/12 11:23:19;;;;;;;;;;;;;;;11.42;87.35;99349.56;5032303;28;920;-57
2021/12/12 11:25:50;;;;;;;;;;;;;;;11.39;86.97;99347.66;5032173;28;877;-57
2021/12/12 11:28:25;;;;;;;;;;;;;;;11.50;87.58;99344.72;5032040;28;811;-57
2021/12/12 11:30:55;;;;;;;;;;;;;;;11.61;87.63;99337.00;5032359;28;1895;-57
2021/12/12 11:33:23;;;;;;;;;;;;;;;11.71;88.35;99323.41;5032091;28;1374;-57
2021/12/12 11:35:53;;;;;;;;;;;;;;;11.61;87.50;99312.09;5032042;28;835;-57
2021/12/12 11:38:29;;;;;;;;;;;;;;;11.51;86.96;99317.81;5032067;28;954;-57
2021/12/12 11:41:09;;;;;;;;;;;;;;;11.45;87.36;99309.19;5031739;28;1367;-57
2021/12/12 11:43:37;;;;;;;;;;;;;;;11.49;87.25;99309.16;5031734;28;913;-57
2021/12/12 11:46:08;;;;;;;;;;;;;;;11.55;87.28;99316.56;5032022;28;909;-57
2021/12/12 11:48:46;;;;;;;;;;;;;;;11.56;87.55;99320.09;5031811;28;815;-57
2021/12/12 11:51:17;;;;;;;;;;;;;;;11.59;87.71;99320.03;5031855;28;802;-57
2021/12/12 11:53:48;;;;;;;;;;;;;;;11.63;87.66;99333.84;5031872;28;822;-57
2021/12/12 11:56:24;;;;;;;;;;;;;;;11.64;87.64;99335.38;5031647;28;826;-57
2021/12/12 11:59:07;;;;;;;;;;;;;;;11.67;87.84;99333.75;5031593;28;964;-57
2021/12/12 12:01:44;;;;;;;;;;;;;;;11.82;87.39;99329.53;5031486;28;921;-57
2021/12/12 12:04:20;;;;;;;;;;;;;;;12.05;87.23;99317.69;5031703;28;933;-57
2021/12/12 12:06:51;;;;;;;;;;;;;;;12.31;86.81;99313.25;5031631;28;838;-57
2021/12/12 12:09:36;;;;;;;;;;;;;;;12.19;86.32;99311.09;5032012;28;1895;-57
2021/12/12 12:12:18;;;;;;;;;;;;;;;12.00;87.68;99318.19;5031567;28;795;-57
2021/12/12 12:14:56;;;;;;;;;;;;;;;11.80;87.45;99299.50;5031482;28;787;-57
2021/12/12 12:17:32;;;;;;;;;;;;;;;11.76;88.10;99309.09;5031627;28;775;-57
2021/12/12 12:20:06;;;;;;;;;;;;;;;11.65;87.61;99307.28;5031463;28;819;-57
2021/12/12 12:22:46;;;;;;;;;;;;;;;11.60;87.34;99301.44;5031520;28;902;-57
2021/12/12 12:25:23;;;;;;;;;;;;;;;11.47;87.59;99315.09;5031409;28;846;-57
2021/12/12 12:27:55;;;;;;;;;;;;;;;11.36;88.11;99309.75;5031233;28;925;-57
2021/12/12 12:30:31;;;;;;;;;;;;;;;11.28;87.73;99301.97;5031460;28;1947;-57
2021/12/12 12:33:13;;;;;;;;;;;;;;;11.25;88.17;99295.31;5031214;28;875;-57
2021/12/12 12:35:58;;;;;;;;;;;;;;;11.28;88.95;99293.66;5031379;28;803;-57
2021/12/12 12:38:45;;;;;;;;;;;;;;;11.32;88.99;99297.16;5031528;28;1067;-57
2021/12/12 12:41:29;;;;;;;;;;;;;;;11.34;89.75;99305.84;4991932;28;1018;-57
2021/12/12 12:44:14;;;;;;;;;;;;;;;11.34;90.02;99316.91;4990681;28;1374;-57
2021/12/12 12:47:00;;;;;;;;;;;;;;;11.31;90.05;99314.97;4991882;28;947;-57
2021/12/12 12:49:45;;;;;;;;;;;;;;;11.26;89.68;99329.28;4991808;28;1973;-57
2021/12/12 12:52:38;;;;;;;;;;;;;;;11.16;90.14;99329.03;4991798;28;795;-57
2021/12/12 12:55:24;;;;;;;;;;;;;;;11.10;90.41;99324.38;4991834;28;931;-57
2021/12/12 12:57:53;;;;;;;;;;;;;;;11.04;91.04;99316.53;4991759;28;910;-57
2021/12/12 13:00:22;;;;;;;;;;;;;;;10.98;91.17;99328.50;4991778;28;861;-57
2021/12/12 13:03:07;;;;;;;;;;;;;;;10.94;91.61;99327.75;4990508;28;914;-57
2021/12/12 13:05:37;;;;;;;;;;;;;;;10.91;91.93;99321.09;4991804;28;791;-57
2021/12/12 13:08:23;;;;;;;;;;;;;;;10.90;91.72;99324.25;4991668;28;815;-57
2021/12/12 13:10:51;;;;;;;;;;;;;;;10.84;91.37;99335.00;4991586;28;1886;-57
2021/12/12 13:13:28;;;;;;;;;;;;;;;10.83;91.87;99350.78;4991716;28;811;-57
2021/12/12 13:16:00;;;;;;;;;;;;;;;10.81;91.94;99350.44;4991589;28;942;-57
2021/12/12 13:18:39;;;;;;;;;;;;;;;10.84;92.33;99354.38;4995222;28;851;-57
2021/12/12 13:21:09;;;;;;;;;;;;;;;10.90;92.53;99357.44;4995199;28;815;-57
2021/12/12 13:23:36;;;;;;;;;;;;;;;10.92;91.94;99355.81;4995155;28;858;-57
2021/12/12 13:26:06;;;;;;;;;;;;;;;10.86;92.02;99360.25;4995017;28;870;-57
2021/12/12 13:28:37;;;;;;;;;;;;;;;10.72;92.11;99361.22;4994988;28;819;-57
2021/12/12 13:31:22;;;;;;;;;;;;;;;10.62;91.95;99340.00;4994845;28;1953;-57
2021/12/12 13:34:00;;;;;;;;;;;;;;;10.52;92.21;99332.63;4995132;28;874;-57
2021/12/12 13:36:46;;;;;;;;;;;;;;;10.41;92.56;99355.69;4995590;28;779;-57
2021/12/12 13:39:15;;;;;;;;;;;;;;;10.35;93.01;99346.28;5005428;28;1434;-57
2021/12/12 13:41:52;;;;;;;;;;;;;;;10.31;93.10;99340.00;5034220;28;1241;-57
2021/12/12 13:44:28;;;;;;;;;;;;;;;10.26;93.21;99334.09;5034134;28;779;-57
2021/12/12 13:46:58;;;;;;;;;;;;;;;10.20;93.81;99317.22;5034110;28;823;-57
2021/12/12 13:49:27;;;;;;;;;;;;;;;10.16;93.38;99322.78;5034269;28;1954;-57
2021/12/12 13:51:54;;;;;;;;;;;;;;;10.09;93.58;99324.81;5033920;28;866;-57
2021/12/12 13:54:42;;;;;;;;;;;;;;;10.06;93.42;99323.66;5033843;28;886;-57
2021/12/12 13:57:19;;;;;;;;;;;;;;;9.98;93.82;99339.50;5033923;28;853;-57
2021/12/12 14:00:05;;;;;;;;;;;;;;;9.95;93.61;99337.56;5033804;28;858;-57
2021/12/12 14:02:33;;;;;;;;;;;;;;;9.92;93.44;99334.84;5033896;28;795;-57
2021/12/12 14:04:58;;;;;;;;;;;;;;;9.82;93.57;99339.28;5033676;28;905;-57
2021/12/12 14:07:46;;;;;;;;;;;;;;;9.77;94.18;99342.47;5033691;28;835;-57
2021/12/12 14:10:19;;;;;;;;;;;;;;;9.75;93.89;99336.56;5026362;28;1874;-57
2021/12/12 14:12:48;;;;;;;;;;;;;;;9.73;94.04;99317.69;5033507;28;925;-57
2021/12/12 14:15:34;;;;;;;;;;;;;;;9.67;94.05;99324.84;5033529;28;902;-57
2021/12/12 14:18:03;;;;;;;;;;;;;;;9.61;94.17;99335.50;5033320;28;1273;-57